Terminal Aerodrome Forecast
Issued by NWS

Home | Current Version | Previous Version | Text Only | Print | Product List | Glossary On
Versions: 1 2 3 4 5 6 7 8 9 10 11 12 13 14 15 16
000
FTUS42 KTBW 272334 AAA
TAFRSW
TAF AMD
KRSW 272334Z 2800/2824 21009KT P6SM SKC
     FM280200 VRB04KT P6SM SKC
     FM280800 VRB03KT 4SM BR FEW020
     FM281300 13008KT P6SM FEW025
     FM281800 18009KT P6SM SCT040
     FM282100 22010KT P6SM SCT050=

USA.gov is the U.S. government's official web portal to all federal, state and local government web resources and services.